Time;durP1;ratioP1;P1;durP2;ratioP2;P2;SDS_P1;SDS_P2;PMS_P1;PMS_P2;Temp;Humidity;BMP_temperature;BMP_pressure;BME280_temperature;BME280_humidity;BME280_pressure;Samples;Min_cycle;Max_cycle;Signal;HPM_P1;HPM_P2
2022/05/20 00:02:20;;;;;;;19.02;6.70;;;;;;;;;;5010838;28;20245;-67
2022/05/20 00:04:47;;;;;;;33.25;7.32;;;;;;;;;;5011141;28;20045;-67
2022/05/20 00:07:14;;;;;;;31.63;7.53;;;;;;;;;;5011269;28;20045;-67
2022/05/20 00:09:40;;;;;;;27.45;7.10;;;;;;;;;;5011449;28;20050;-68
2022/05/20 00:12:07;;;;;;;30.25;7.43;;;;;;;;;;5009851;28;20038;-66
2022/05/20 00:14:34;;;;;;;35.85;8.57;;;;;;;;;;5010841;28;20116;-68
2022/05/20 00:17:05;;;;;;;22.33;7.07;;;;;;;;;;5011465;28;20396;-67
2022/05/20 00:19:32;;;;;;;31.70;8.45;;;;;;;;;;5011273;28;20045;-66
2022/05/20 00:21:59;;;;;;;43.35;10.82;;;;;;;;;;5011188;28;20514;-66
2022/05/20 00:24:25;;;;;;;24.55;7.13;;;;;;;;;;5011687;28;20488;-66
2022/05/20 00:26:52;;;;;;;23.38;7.78;;;;;;;;;;5009695;28;20041;-66
2022/05/20 00:29:19;;;;;;;32.38;8.27;;;;;;;;;;5010890;28;20033;-66
2022/05/20 00:31:45;;;;;;;22.17;7.50;;;;;;;;;;5011002;28;20459;-66
2022/05/20 00:34:12;;;;;;;31.45;8.50;;;;;;;;;;5011165;28;20120;-66
2022/05/20 00:36:38;;;;;;;32.10;8.25;;;;;;;;;;5016967;28;20107;-67
2022/05/20 00:39:05;;;;;;;20.20;7.75;;;;;;;;;;5015267;28;20042;-66
2022/05/20 00:41:31;;;;;;;31.20;8.07;;;;;;;;;;5014590;28;20542;-65
2022/05/20 00:44:01;;;;;;;36.90;9.55;;;;;;;;;;5014623;28;20038;-66
2022/05/20 00:46:28;;;;;;;30.17;8.73;;;;;;;;;;5014819;28;20060;-66
2022/05/20 00:49:02;;;;;;;42.40;10.10;;;;;;;;;;5013661;28;20046;-66
2022/05/20 00:51:28;;;;;;;22.35;8.00;;;;;;;;;;5015561;28;20133;-66
2022/05/20 00:54:04;;;;;;;26.92;8.82;;;;;;;;;;5013816;28;20048;-66
2022/05/20 00:56:34;;;;;;;32.38;8.30;;;;;;;;;;5014450;28;20045;-66
2022/05/20 00:59:02;;;;;;;29.40;9.10;;;;;;;;;;5014515;28;20133;-66
2022/05/20 01:01:28;;;;;;;31.20;7.93;;;;;;;;;;5013973;28;20065;-66
2022/05/20 01:03:56;;;;;;;32.83;9.02;;;;;;;;;;5014401;28;20045;-66
2022/05/20 01:06:23;;;;;;;24.55;9.38;;;;;;;;;;5015010;28;20489;-66
2022/05/20 01:08:49;;;;;;;30.25;8.02;;;;;;;;;;5014128;28;20050;-66
2022/05/20 01:11:15;;;;;;;27.05;8.32;;;;;;;;;;5014056;28;20045;-65
2022/05/20 01:13:44;;;;;;;21.58;7.55;;;;;;;;;;5014218;28;20077;-65
2022/05/20 01:16:11;;;;;;;30.33;8.60;;;;;;;;;;5014125;28;20054;-66
2022/05/20 01:18:40;;;;;;;34.45;8.57;;;;;;;;;;5014824;28;20066;-66
2022/05/20 01:21:06;;;;;;;35.65;9.20;;;;;;;;;;5014079;28;20100;-66
2022/05/20 01:23:34;;;;;;;37.20;9.38;;;;;;;;;;5013637;28;20042;-66
2022/05/20 01:26:01;;;;;;;22.52;8.00;;;;;;;;;;5013884;28;20272;-66
2022/05/20 01:28:28;;;;;;;20.48;7.15;;;;;;;;;;5013916;28;20033;-66
2022/05/20 01:30:57;;;;;;;30.13;8.48;;;;;;;;;;5014022;28;20084;-66
2022/05/20 01:33:30;;;;;;;22.63;7.30;;;;;;;;;;5014579;28;20046;-66
2022/05/20 01:35:56;;;;;;;18.60;6.75;;;;;;;;;;5013829;28;20496;-66
2022/05/20 01:38:23;;;;;;;31.30;8.90;;;;;;;;;;5019569;28;20040;-66
2022/05/20 01:40:56;;;;;;;25.40;7.82;;;;;;;;;;5013710;28;20046;-66
2022/05/20 01:43:41;;;;;;;21.47;8.10;;;;;;;;;;5014106;28;20062;-66
2022/05/20 01:46:13;;;;;;;33.55;8.80;;;;;;;;;;5013631;28;20044;-66
2022/05/20 01:49:18;;;;;;;24.27;7.75;;;;;;;;;;5013241;28;20508;-67
2022/05/20 01:51:53;;;;;;;22.23;7.47;;;;;;;;;;5005550;28;20046;-68
2022/05/20 01:54:42;;;;;;;37.22;8.27;;;;;;;;;;4995681;28;20070;-68
2022/05/20 01:57:23;;;;;;;27.65;8.23;;;;;;;;;;4923738;29;20083;-67
2022/05/20 01:59:53;;;;;;;22.08;7.28;;;;;;;;;;4926021;29;20060;-68
2022/05/20 02:02:27;;;;;;;29.13;7.80;;;;;;;;;;4925931;29;20048;-67
2022/05/20 02:04:58;;;;;;;27.90;7.88;;;;;;;;;;4925598;29;20062;-67
2022/05/20 02:07:27;;;;;;;27.23;7.38;;;;;;;;;;4925452;29;20048;-67
2022/05/20 02:10:01;;;;;;;32.20;8.68;;;;;;;;;;4932488;29;20060;-67
2022/05/20 02:12:29;;;;;;;16.60;7.10;;;;;;;;;;4929379;29;20058;-67
2022/05/20 02:15:00;;;;;;;17.38;6.90;;;;;;;;;;4925127;29;20059;-67
2022/05/20 02:17:32;;;;;;;20.90;7.32;;;;;;;;;;4925153;29;20054;-67
2022/05/20 02:20:09;;;;;;;25.65;7.70;;;;;;;;;;4925185;29;20048;-67
2022/05/20 02:22:38;;;;;;;24.10;7.95;;;;;;;;;;4939056;29;20058;-67
2022/05/20 02:25:06;;;;;;;34.85;8.13;;;;;;;;;;4950356;29;20054;-67
2022/05/20 02:27:36;;;;;;;28.55;6.95;;;;;;;;;;4950899;29;20043;-67
2022/05/20 02:30:10;;;;;;;67.65;11.20;;;;;;;;;;4947990;29;20051;-67
2022/05/20 02:32:41;;;;;;;182.77;20.98;;;;;;;;;;4947938;29;20066;-67
2022/05/20 02:35:08;;;;;;;76.82;12.23;;;;;;;;;;5011784;28;20050;-67
2022/05/20 02:37:36;;;;;;;44.90;9.10;;;;;;;;;;5012661;28;20408;-67
2022/05/20 02:40:04;;;;;;;39.85;8.02;;;;;;;;;;5012166;28;20056;-67
2022/05/20 02:42:30;;;;;;;60.08;11.98;;;;;;;;;;5013257;28;20401;-67
2022/05/20 02:44:59;;;;;;;39.65;8.00;;;;;;;;;;5012511;28;20487;-67
2022/05/20 02:47:31;;;;;;;34.75;8.27;;;;;;;;;;5012259;28;20042;-68
2022/05/20 02:49:58;;;;;;;30.02;7.70;;;;;;;;;;5012127;28;20042;-67
2022/05/20 02:52:25;;;;;;;30.23;7.80;;;;;;;;;;5012356;28;20462;-68
2022/05/20 02:54:51;;;;;;;35.90;7.90;;;;;;;;;;5012682;28;20041;-67
2022/05/20 02:57:18;;;;;;;36.72;8.45;;;;;;;;;;5012492;28;20104;-67
2022/05/20 03:05:15;;;;;;;26.55;7.93;;;;;;;;;;5011930;28;22242;-67
2022/05/20 03:07:42;;;;;;;29.85;8.40;;;;;;;;;;5012157;28;20045;-67
2022/05/20 03:10:09;;;;;;;40.63;9.23;;;;;;;;;;5011530;28;20045;-67
2022/05/20 03:12:35;;;;;;;21.75;7.22;;;;;;;;;;5012633;28;20042;-67
2022/05/20 03:15:03;;;;;;;79.22;11.57;;;;;;;;;;5011795;28;20069;-67
2022/05/20 03:17:30;;;;;;;96.65;11.70;;;;;;;;;;5011703;28;20076;-67
2022/05/20 03:19:58;;;;;;;38.45;8.40;;;;;;;;;;5012177;28;20100;-67
2022/05/20 03:22:24;;;;;;;39.35;8.18;;;;;;;;;;5011795;28;20512;-67
2022/05/20 03:24:51;;;;;;;31.35;7.75;;;;;;;;;;5012193;28;20046;-67
2022/05/20 03:27:17;;;;;;;45.90;8.55;;;;;;;;;;5011588;28;20042;-67
2022/05/20 03:29:44;;;;;;;50.25;8.10;;;;;;;;;;5010451;28;20042;-67
2022/05/20 03:32:11;;;;;;;45.85;8.98;;;;;;;;;;5011321;28;20129;-67
2022/05/20 03:34:38;;;;;;;30.17;7.68;;;;;;;;;;5024360;28;20037;-67
2022/05/20 03:37:05;;;;;;;45.63;8.77;;;;;;;;;;5011739;28;20041;-67
2022/05/20 03:39:32;;;;;;;36.88;8.13;;;;;;;;;;5011569;28;20440;-67
2022/05/20 03:41:59;;;;;;;37.47;7.80;;;;;;;;;;5011950;28;20052;-67
2022/05/20 03:44:25;;;;;;;29.77;7.88;;;;;;;;;;5011299;28;20046;-67
2022/05/20 03:46:53;;;;;;;56.67;10.65;;;;;;;;;;5011401;28;20125;-67
2022/05/20 03:49:21;;;;;;;91.75;10.68;;;;;;;;;;5011803;28;20502;-67
2022/05/20 03:51:48;;;;;;;59.28;8.23;;;;;;;;;;5011999;28;20464;-67
2022/05/20 03:54:15;;;;;;;35.25;7.25;;;;;;;;;;5010923;28;20046;-67
2022/05/20 03:56:43;;;;;;;31.77;7.05;;;;;;;;;;5011365;28;20056;-67
2022/05/20 03:59:10;;;;;;;29.08;7.15;;;;;;;;;;5011100;28;20412;-67
2022/05/20 04:04:24;;;;;;;42.25;7.47;;;;;;;;;;5011709;28;20074;-67
2022/05/20 04:06:50;;;;;;;37.00;7.28;;;;;;;;;;5011789;28;20056;-67
2022/05/20 04:09:17;;;;;;;40.60;8.20;;;;;;;;;;5010911;28;20377;-67
2022/05/20 04:11:44;;;;;;;24.73;6.60;;;;;;;;;;5011733;28;20052;-67
2022/05/20 04:14:11;;;;;;;37.58;7.85;;;;;;;;;;5015335;28;20080;-67
2022/05/20 04:16:37;;;;;;;23.33;6.75;;;;;;;;;;5015335;28;20049;-67
2022/05/20 04:19:04;;;;;;;94.78;11.48;;;;;;;;;;5015270;28;20076;-67
2022/05/20 04:21:31;;;;;;;97.57;10.45;;;;;;;;;;5014383;28;20042;-67
2022/05/20 04:24:02;;;;;;;38.70;6.97;;;;;;;;;;5014774;28;20092;-68
2022/05/20 04:26:28;;;;;;;33.33;6.78;;;;;;;;;;5015101;28;20046;-68
2022/05/20 04:28:55;;;;;;;25.48;6.25;;;;;;;;;;5015266;28;20048;-68
2022/05/20 04:31:21;;;;;;;24.30;6.55;;;;;;;;;;5020975;28;20121;-68
2022/05/20 04:33:49;;;;;;;33.60;7.28;;;;;;;;;;5015647;28;20121;-67
2022/05/20 04:36:15;;;;;;;31.80;6.78;;;;;;;;;;5014657;28;20088;-67
2022/05/20 04:38:42;;;;;;;34.05;6.25;;;;;;;;;;5014790;28;20054;-68
2022/05/20 04:46:56;;;;;;;37.50;7.25;;;;;;;;;;5014432;28;20038;-68
2022/05/20 04:49:23;;;;;;;37.25;6.63;;;;;;;;;;5014537;28;20037;-68
2022/05/20 04:51:50;;;;;;;36.58;6.78;;;;;;;;;;5015540;28;20041;-66
2022/05/20 04:57:02;;;;;;;32.65;7.18;;;;;;;;;;5013166;28;20056;-66
2022/05/20 04:59:28;;;;;;;22.15;5.93;;;;;;;;;;5013561;28;20129;-66
2022/05/20 05:01:55;;;;;;;25.25;5.03;;;;;;;;;;5013383;28;20041;-66
2022/05/20 05:04:22;;;;;;;42.92;6.55;;;;;;;;;;5012397;28;20061;-66
2022/05/20 05:06:48;;;;;;;81.70;9.52;;;;;;;;;;5016000;28;20046;-68
2022/05/20 05:09:15;;;;;;;76.35;8.40;;;;;;;;;;5013485;28;20050;-68
2022/05/20 05:11:41;;;;;;;36.05;6.13;;;;;;;;;;5013749;28;20041;-68
2022/05/20 05:14:13;;;;;;;30.05;5.82;;;;;;;;;;5013971;28;20124;-68
2022/05/20 05:16:40;;;;;;;390.65;31.67;;;;;;;;;;5014146;28;20121;-68
2022/05/20 05:19:06;;;;;;;43.67;7.47;;;;;;;;;;5014217;28;20078;-68
2022/05/20 05:21:34;;;;;;;19.88;5.13;;;;;;;;;;5014942;28;20050;-68
2022/05/20 05:24:00;;;;;;;33.25;6.28;;;;;;;;;;5013761;28;20112;-68
2022/05/20 05:26:28;;;;;;;40.20;6.97;;;;;;;;;;5013950;28;20404;-68
2022/05/20 05:28:55;;;;;;;36.10;6.35;;;;;;;;;;5013737;28;20489;-69
2022/05/20 05:31:22;;;;;;;35.42;6.25;;;;;;;;;;5020152;28;20049;-69
2022/05/20 05:33:50;;;;;;;25.05;4.45;;;;;;;;;;5014773;28;20535;-69
2022/05/20 05:36:18;;;;;;;18.63;4.60;;;;;;;;;;5013711;28;20092;-69
2022/05/20 05:38:44;;;;;;;32.88;5.25;;;;;;;;;;5013394;28;20508;-69
2022/05/20 05:41:11;;;;;;;37.70;5.45;;;;;;;;;;5013552;28;20061;-69
2022/05/20 05:43:38;;;;;;;36.58;6.53;;;;;;;;;;5013918;28;20057;-69
2022/05/20 05:46:04;;;;;;;39.35;6.50;;;;;;;;;;5012411;28;20073;-66
2022/05/20 05:48:31;;;;;;;88.07;10.13;;;;;;;;;;5013869;28;20046;-66
2022/05/20 05:50:59;;;;;;;308.42;27.55;;;;;;;;;;5013451;28;20041;-67
2022/05/20 05:53:25;;;;;;;42.35;5.93;;;;;;;;;;5013209;28;20050;-69
2022/05/20 05:55:59;;;;;;;34.92;6.25;;;;;;;;;;5013753;28;20048;-66
2022/05/20 05:58:26;;;;;;;29.63;6.05;;;;;;;;;;5013330;28;20077;-67
2022/05/20 06:00:55;;;;;;;35.22;5.32;;;;;;;;;;5014465;28;20057;-67
2022/05/20 06:03:22;;;;;;;103.50;11.00;;;;;;;;;;5010937;28;20073;-67
2022/05/20 06:05:49;;;;;;;127.63;13.27;;;;;;;;;;5013139;28;20056;-67
2022/05/20 06:08:16;;;;;;;69.50;7.60;;;;;;;;;;5009934;28;20435;-66
2022/05/20 06:10:43;;;;;;;28.80;4.70;;;;;;;;;;5012934;28;20072;-67
2022/05/20 06:13:10;;;;;;;149.80;13.23;;;;;;;;;;5012576;28;20069;-66
2022/05/20 06:15:37;;;;;;;59.20;7.40;;;;;;;;;;5012720;28;20493;-67
2022/05/20 06:18:03;;;;;;;37.15;4.70;;;;;;;;;;5012322;28;20270;-66
2022/05/20 06:20:30;;;;;;;42.30;6.13;;;;;;;;;;5011298;28;20136;-67
2022/05/20 06:22:57;;;;;;;28.52;4.75;;;;;;;;;;5013222;28;20506;-67
2022/05/20 06:25:24;;;;;;;48.50;6.07;;;;;;;;;;4996601;28;20045;-67
2022/05/20 06:27:50;;;;;;;23.25;4.43;;;;;;;;;;5025067;28;20068;-67
2022/05/20 06:30:18;;;;;;;29.52;4.85;;;;;;;;;;5013394;28;20042;-67
2022/05/20 06:32:44;;;;;;;145.93;10.82;;;;;;;;;;5012703;28;20045;-66
2022/05/20 06:40:46;;;;;;;37.03;6.07;;;;;;;;;;5011970;28;20136;-67
2022/05/20 06:43:13;;;;;;;37.65;5.20;;;;;;;;;;5012492;28;20121;-67
2022/05/20 06:45:40;;;;;;;111.10;10.65;;;;;;;;;;5012969;28;20034;-66
2022/05/20 06:48:59;;;;;;;44.13;6.88;;;;;;;;;;5012835;28;20485;-66
2022/05/20 06:51:33;;;;;;;38.17;5.32;;;;;;;;;;4997829;28;20480;-66
2022/05/20 06:54:00;;;;;;;24.65;4.25;;;;;;;;;;4998601;28;20058;-66
2022/05/20 06:56:28;;;;;;;33.17;4.25;;;;;;;;;;4998886;28;20419;-67
2022/05/20 06:58:56;;;;;;;18.60;3.83;;;;;;;;;;4998553;28;20037;-66
2022/05/20 07:01:22;;;;;;;47.38;6.03;;;;;;;;;;4977575;28;20212;-66
2022/05/20 07:03:49;;;;;;;74.82;7.95;;;;;;;;;;4991491;28;20050;-66
2022/05/20 07:06:16;;;;;;;36.67;5.28;;;;;;;;;;4999142;28;20054;-67
2022/05/20 07:08:48;;;;;;;213.30;18.85;;;;;;;;;;4997777;28;20453;-67
2022/05/20 07:11:18;;;;;;;59.75;7.72;;;;;;;;;;4998902;28;20081;-67
2022/05/20 07:13:46;;;;;;;30.80;4.90;;;;;;;;;;4996312;28;20061;-67
2022/05/20 07:16:16;;;;;;;20.05;3.47;;;;;;;;;;4993822;28;20064;-66
2022/05/20 07:18:43;;;;;;;22.45;3.70;;;;;;;;;;4996449;28;20047;-67
2022/05/20 07:21:09;;;;;;;19.02;3.50;;;;;;;;;;4998446;28;20536;-67
2022/05/20 07:23:36;;;;;;;37.63;4.25;;;;;;;;;;4998070;28;20056;-66
2022/05/20 07:26:02;;;;;;;15.43;2.95;;;;;;;;;;4999019;28;20479;-66
2022/05/20 07:28:30;;;;;;;21.98;3.53;;;;;;;;;;5021466;28;20048;-66
2022/05/20 07:30:56;;;;;;;54.35;7.95;;;;;;;;;;5012167;28;20504;-67
2022/05/20 07:33:23;;;;;;;117.90;8.57;;;;;;;;;;5011984;28;20079;-67
2022/05/20 07:35:49;;;;;;;32.72;5.10;;;;;;;;;;5011386;28;20096;-67
2022/05/20 07:38:16;;;;;;;25.55;3.80;;;;;;;;;;5011934;28;20496;-67
2022/05/20 07:40:43;;;;;;;11.63;2.70;;;;;;;;;;5011139;28;20069;-67
2022/05/20 07:43:11;;;;;;;37.83;5.88;;;;;;;;;;5011426;28;20050;-67
2022/05/20 07:45:38;;;;;;;15.30;2.88;;;;;;;;;;5012318;28;20107;-67
2022/05/20 07:48:04;;;;;;;21.98;3.38;;;;;;;;;;5010874;28;20076;-67
2022/05/20 07:50:33;;;;;;;22.50;4.18;;;;;;;;;;5011391;28;20033;-67
2022/05/20 07:55:46;;;;;;;24.05;4.13;;;;;;;;;;5011120;28;20396;-67
2022/05/20 07:58:15;;;;;;;66.75;5.80;;;;;;;;;;5011251;28;20046;-66
2022/05/20 08:00:41;;;;;;;57.65;5.18;;;;;;;;;;5012381;28;20571;-67
2022/05/20 08:03:10;;;;;;;14.82;3.35;;;;;;;;;;5009708;28;20052;-66
2022/05/20 08:05:36;;;;;;;27.15;3.15;;;;;;;;;;5011263;28;20038;-66
2022/05/20 08:08:05;;;;;;;148.10;12.70;;;;;;;;;;5011099;28;20039;-67
2022/05/20 08:10:33;;;;;;;18.00;3.25;;;;;;;;;;5010996;28;20026;-66
2022/05/20 08:13:01;;;;;;;76.28;6.40;;;;;;;;;;5011403;28;20042;-67
2022/05/20 08:15:28;;;;;;;23.10;3.75;;;;;;;;;;5011477;28;20049;-68
2022/05/20 08:17:55;;;;;;;21.17;3.60;;;;;;;;;;5011497;28;20076;-67
2022/05/20 08:20:27;;;;;;;103.18;8.38;;;;;;;;;;5011353;28;20033;-67
2022/05/20 08:22:54;;;;;;;22.45;3.33;;;;;;;;;;5010989;28;20038;-67
2022/05/20 08:25:21;;;;;;;29.83;4.63;;;;;;;;;;5017191;28;20038;-67
2022/05/20 08:27:47;;;;;;;11.07;3.03;;;;;;;;;;5011653;28;20128;-68
2022/05/20 08:30:18;;;;;;;27.77;4.53;;;;;;;;;;5010983;28;20073;-67
2022/05/20 08:32:44;;;;;;;16.30;3.35;;;;;;;;;;5010690;28;20860;-67
2022/05/20 08:35:11;;;;;;;56.63;5.40;;;;;;;;;;5010807;28;20042;-67
2022/05/20 08:37:39;;;;;;;23.77;4.10;;;;;;;;;;5011119;28;20115;-67
2022/05/20 08:40:08;;;;;;;36.22;5.32;;;;;;;;;;5009300;28;20058;-67
2022/05/20 08:42:35;;;;;;;48.67;5.20;;;;;;;;;;5011366;28;20500;-67
2022/05/20 08:45:02;;;;;;;26.58;4.28;;;;;;;;;;5010844;28;20050;-67
2022/05/20 08:47:37;;;;;;;18.42;3.72;;;;;;;;;;5010913;28;20041;-67
2022/05/20 08:50:06;;;;;;;26.80;4.05;;;;;;;;;;5010810;28;20386;-68
2022/05/20 08:52:32;;;;;;;20.85;4.85;;;;;;;;;;5010748;28;20128;-67
2022/05/20 08:54:59;;;;;;;22.30;4.20;;;;;;;;;;5010816;28;20075;-67
2022/05/20 08:57:38;;;;;;;20.55;3.30;;;;;;;;;;5011567;28;20042;-67
2022/05/20 09:00:09;;;;;;;26.50;4.93;;;;;;;;;;5014485;28;20044;-67
2022/05/20 09:02:36;;;;;;;24.33;4.10;;;;;;;;;;5012716;28;20468;-68
2022/05/20 09:05:18;;;;;;;38.75;5.63;;;;;;;;;;5014227;28;20544;-67
2022/05/20 09:07:53;;;;;;;21.27;3.38;;;;;;;;;;5014724;28;20554;-67
2022/05/20 09:10:41;;;;;;;22.92;4.38;;;;;;;;;;5013886;28;20516;-67
2022/05/20 09:13:13;;;;;;;29.27;4.63;;;;;;;;;;5014512;28;20143;-67
2022/05/20 09:15:47;;;;;;;;;;;;;;;;;;5015452;28;20104;-67
2022/05/20 09:18:20;;;;;;;17.67;3.67;;;;;;;;;;5014310;28;19922;-68
2022/05/20 09:20:48;;;;;;;15.68;3.90;;;;;;;;;;5014202;28;20116;-67
2022/05/20 09:23:20;;;;;;;102.38;11.68;;;;;;;;;;5013931;28;20496;-67
2022/05/20 09:25:56;;;;;;;23.60;3.90;;;;;;;;;;5020519;28;20551;-67
2022/05/20 09:28:32;;;;;;;22.25;4.30;;;;;;;;;;5014068;28;20068;-67
2022/05/20 09:31:22;;;;;;;21.35;4.47;;;;;;;;;;5014581;28;20046;-66
2022/05/20 09:33:51;;;;;;;34.38;5.93;;;;;;;;;;5013993;28;20053;-66
2022/05/20 09:36:30;;;;;;;21.80;5.00;;;;;;;;;;5014075;28;20080;-66
2022/05/20 09:39:07;;;;;;;23.90;4.05;;;;;;;;;;5013552;28;20048;-66
2022/05/20 09:41:42;;;;;;;22.08;4.72;;;;;;;;;;5013601;28;20474;-66
2022/05/20 09:44:13;;;;;;;49.22;5.38;;;;;;;;;;5013556;28;20069;-66
2022/05/20 09:46:44;;;;;;;28.70;3.95;;;;;;;;;;5013531;28;20120;-66
2022/05/20 09:49:15;;;;;;;52.50;7.90;;;;;;;;;;5013457;28;20073;-66
2022/05/20 09:51:46;;;;;;;29.73;5.15;;;;;;;;;;5014109;28;20050;-66
2022/05/20 09:54:15;;;;;;;21.80;3.65;;;;;;;;;;5012967;28;20046;-66
2022/05/20 09:56:46;;;;;;;31.63;4.43;;;;;;;;;;5013125;28;20076;-66
2022/05/20 09:59:29;;;;;;;69.25;8.15;;;;;;;;;;5013396;28;20046;-66
2022/05/20 10:02:11;;;;;;;172.40;14.02;;;;;;;;;;5011460;28;20503;-66
2022/05/20 10:04:38;;;;;;;162.82;11.93;;;;;;;;;;5013018;28;20046;-66
2022/05/20 10:07:06;;;;;;;42.25;5.95;;;;;;;;;;5013396;28;20053;-66
2022/05/20 10:09:42;;;;;;;51.58;5.80;;;;;;;;;;5012073;28;20045;-66
2022/05/20 10:12:11;;;;;;;213.93;15.30;;;;;;;;;;5013362;28;20410;-66
2022/05/20 10:14:57;;;;;;;33.90;5.60;;;;;;;;;;5012788;28;20041;-66
2022/05/20 10:17:31;;;;;;;15.82;3.15;;;;;;;;;;5012734;28;20033;-66
2022/05/20 10:20:20;;;;;;;39.03;5.60;;;;;;;;;;5012738;28;20052;-66
2022/05/20 10:22:58;;;;;;;70.80;7.57;;;;;;;;;;5025526;28;20034;-66
2022/05/20 10:25:35;;;;;;;19.70;3.97;;;;;;;;;;5012633;28;20038;-66
2022/05/20 10:32:34;;;;;;;71.95;7.63;;;;;;;;;;5011426;28;20046;-66
2022/05/20 10:33:52;;;;;;;15.48;3.55;;;;;;;;;;5013177;28;20124;-66
2022/05/20 10:36:39;;;;;;;29.75;4.13;;;;;;;;;;5012728;28;20037;-65
2022/05/20 10:39:09;;;;;;;35.90;4.88;;;;;;;;;;5009979;28;20124;-65
2022/05/20 10:42:13;;;;;;;23.27;4.30;;;;;;;;;;5008610;28;20041;-65
2022/05/20 10:50:38;;;;;;;15.32;3.33;;;;;;;;;;5012317;28;20034;-66
2022/05/20 10:53:24;;;;;;;14.27;4.07;;;;;;;;;;5012047;28;20381;-66
2022/05/20 10:56:05;;;;;;;97.60;10.18;;;;;;;;;;5012248;28;20125;-66
2022/05/20 10:58:43;;;;;;;46.13;6.23;;;;;;;;;;5012318;28;20484;-66
2022/05/20 11:01:30;;;;;;;29.55;3.92;;;;;;;;;;5012808;28;20052;-66
2022/05/20 11:04:19;;;;;;;26.38;3.70;;;;;;;;;;5015789;28;20233;-66
2022/05/20 11:06:54;;;;;;;12.40;3.22;;;;;;;;;;5011447;28;20038;-66
2022/05/20 11:09:25;;;;;;;40.00;5.55;;;;;;;;;;5011497;28;20038;-66
2022/05/20 11:12:02;;;;;;;11.43;3.03;;;;;;;;;;5011970;28;20049;-66
2022/05/20 11:14:50;;;;;;;17.25;2.75;;;;;;;;;;5011800;28;20554;-65
2022/05/20 11:17:16;;;;;;;40.42;4.95;;;;;;;;;;5011714;28;20041;-65
2022/05/20 11:19:52;;;;;;;123.53;11.00;;;;;;;;;;5011814;28;20054;-65
2022/05/20 11:22:30;;;;;;;103.68;8.98;;;;;;;;;;5024219;28;20120;-65
2022/05/20 11:25:16;;;;;;;98.88;8.18;;;;;;;;;;5012207;28;20041;-66
2022/05/20 11:27:45;;;;;;;25.17;4.00;;;;;;;;;;5010969;28;20044;-65
2022/05/20 11:30:23;;;;;;;10.95;2.55;;;;;;;;;;5011784;28;20064;-65
2022/05/20 11:33:07;;;;;;;23.60;2.88;;;;;;;;;;5011506;28;20077;-65
2022/05/20 11:35:43;;;;;;;29.52;4.47;;;;;;;;;;5011419;28;20132;-65
2022/05/20 11:38:12;;;;;;;75.15;7.18;;;;;;;;;;5011717;28;20033;-66
2022/05/20 11:40:58;;;;;;;55.38;4.90;;;;;;;;;;5011267;28;20050;-65
2022/05/20 11:43:33;;;;;;;25.70;3.60;;;;;;;;;;5010573;28;20137;-65
2022/05/20 11:46:05;;;;;;;23.95;3.85;;;;;;;;;;5012049;28;20048;-66
2022/05/20 11:48:43;;;;;;;22.52;3.38;;;;;;;;;;5011113;28;20049;-65
2022/05/20 11:51:19;;;;;;;30.27;4.32;;;;;;;;;;5011332;28;20050;-66
2022/05/20 11:53:54;;;;;;;29.30;4.00;;;;;;;;;;5011453;28;20084;-65
2022/05/20 11:56:30;;;;;;;21.75;3.60;;;;;;;;;;5011152;28;20492;-65
2022/05/20 11:59:17;;;;;;;20.35;3.40;;;;;;;;;;5011376;28;20056;-66
2022/05/20 12:01:45;;;;;;;47.70;5.07;;;;;;;;;;5009117;28;20042;-65
2022/05/20 12:04:13;;;;;;;40.38;4.13;;;;;;;;;;5011213;28;20177;-66
2022/05/20 12:06:48;;;;;;;60.45;6.45;;;;;;;;;;5011797;28;20046;-65
2022/05/20 12:09:25;;;;;;;32.58;4.38;;;;;;;;;;5010628;28;20050;-65
2022/05/20 12:12:11;;;;;;;38.88;4.82;;;;;;;;;;5011306;28;20048;-65
2022/05/20 12:14:56;;;;;;;31.25;3.40;;;;;;;;;;5010750;28;20042;-66
2022/05/20 12:17:29;;;;;;;30.90;4.30;;;;;;;;;;5010989;28;20045;-66
2022/05/20 12:25:42;;;;;;;48.92;3.70;;;;;;;;;;5011294;28;20052;-66
2022/05/20 12:28:10;;;;;;;50.05;4.78;;;;;;;;;;5011098;28;20045;-65
2022/05/20 12:30:36;;;;;;;20.58;2.35;;;;;;;;;;5011494;28;20049;-66
2022/05/20 12:33:19;;;;;;;21.58;3.35;;;;;;;;;;5012007;28;20403;-66
2022/05/20 12:35:46;;;;;;;;;;;;;;;;;;5015350;28;20092;-65
2022/05/20 12:38:21;;;;;;;18.80;2.63;;;;;;;;;;5014977;28;19921;-65
2022/05/20 12:40:49;;;;;;;55.35;4.32;;;;;;;;;;5014615;28;20066;-65
2022/05/20 12:43:17;;;;;;;125.03;10.55;;;;;;;;;;5014610;28;20116;-65
2022/05/20 12:45:49;;;;;;;92.10;8.30;;;;;;;;;;5015434;28;20052;-65
2022/05/20 12:48:27;;;;;;;18.00;3.33;;;;;;;;;;5013720;28;20048;-65
2022/05/20 12:51:01;;;;;;;34.58;3.25;;;;;;;;;;5014735;28;20082;-65
2022/05/20 12:53:29;;;;;;;47.03;4.45;;;;;;;;;;5014055;28;20045;-65
2022/05/20 12:55:56;;;;;;;43.33;4.97;;;;;;;;;;5014408;28;20088;-65
2022/05/20 12:58:24;;;;;;;254.82;21.85;;;;;;;;;;5014582;28;20046;-65
2022/05/20 13:00:51;;;;;;;21.55;2.83;;;;;;;;;;5015157;28;20049;-66
2022/05/20 13:03:22;;;;;;;140.27;10.25;;;;;;;;;;5012235;28;20042;-65
2022/05/20 13:05:50;;;;;;;57.60;5.65;;;;;;;;;;5014377;28;20085;-65
2022/05/20 13:08:27;;;;;;;167.55;12.32;;;;;;;;;;5014564;28;20117;-66
2022/05/20 13:10:54;;;;;;;22.70;2.58;;;;;;;;;;5014512;28;20069;-65
2022/05/20 13:13:24;;;;;;;105.97;11.05;;;;;;;;;;5013933;28;20496;-66
2022/05/20 13:15:55;;;;;;;68.53;6.05;;;;;;;;;;5014980;28;20501;-66
2022/05/20 13:18:23;;;;;;;18.98;2.85;;;;;;;;;;5014798;28;20046;-66
2022/05/20 13:20:51;;;;;;;40.40;4.13;;;;;;;;;;5017739;28;20447;-65
2022/05/20 13:23:22;;;;;;;25.20;3.30;;;;;;;;;;5013873;28;20126;-66
2022/05/20 13:25:48;;;;;;;40.50;4.20;;;;;;;;;;5014239;28;20128;-65
2022/05/20 13:28:41;;;;;;;33.60;3.85;;;;;;;;;;5013869;28;20046;-66
2022/05/20 13:31:13;;;;;;;231.93;20.48;;;;;;;;;;5014513;28;20050;-65
2022/05/20 13:33:41;;;;;;;28.77;3.28;;;;;;;;;;5014495;28;20037;-66
2022/05/20 13:36:11;;;;;;;16.02;2.35;;;;;;;;;;5014191;28;20117;-65
2022/05/20 13:38:42;;;;;;;39.15;4.13;;;;;;;;;;5013635;28;20113;-67
2022/05/20 13:41:10;;;;;;;24.48;3.90;;;;;;;;;;5013499;28;20582;-67
2022/05/20 13:43:38;;;;;;;27.05;3.03;;;;;;;;;;5013279;28;20042;-66
2022/05/20 13:51:41;;;;;;;156.40;12.55;;;;;;;;;;5013574;28;20518;-67
2022/05/20 13:54:10;;;;;;;20.20;2.60;;;;;;;;;;5013013;28;20050;-66
2022/05/20 13:56:38;;;;;;;121.22;11.80;;;;;;;;;;5013062;28;20038;-66
2022/05/20 13:59:06;;;;;;;16.10;2.75;;;;;;;;;;5013554;28;20405;-67
2022/05/20 14:01:32;;;;;;;38.22;4.88;;;;;;;;;;5012507;28;20060;-66
2022/05/20 14:04:01;;;;;;;46.17;4.82;;;;;;;;;;5014048;28;20809;-66
2022/05/20 14:06:28;;;;;;;27.92;3.38;;;;;;;;;;5013845;28;20046;-66
2022/05/20 14:08:56;;;;;;;26.00;3.30;;;;;;;;;;5012807;28;20042;-67
2022/05/20 14:11:28;;;;;;;43.05;5.03;;;;;;;;;;5012994;28;20084;-66
2022/05/20 14:14:02;;;;;;;55.55;5.70;;;;;;;;;;5013143;28;20121;-66
2022/05/20 14:16:34;;;;;;;71.20;6.55;;;;;;;;;;5025935;28;20091;-66
2022/05/20 14:19:03;;;;;;;23.93;2.90;;;;;;;;;;5013862;28;20129;-66
2022/05/20 14:21:29;;;;;;;18.05;3.28;;;;;;;;;;5013018;28;20416;-66
2022/05/20 14:23:59;;;;;;;22.98;3.00;;;;;;;;;;5012558;28;20054;-67
2022/05/20 14:26:33;;;;;;;;;;;;;;;;;;5012992;28;20044;-66
2022/05/20 14:29:00;;;;;;;27.52;3.80;;;;;;;;;;5012764;28;20269;-66
2022/05/20 14:31:32;;;;;;;18.73;2.75;;;;;;;;;;5013017;28;20473;-67
2022/05/20 14:34:04;;;;;;;163.82;16.08;;;;;;;;;;5013148;28;20046;-67
2022/05/20 14:36:32;;;;;;;32.28;3.20;;;;;;;;;;5013022;28;20496;-66
2022/05/20 14:39:00;;;;;;;38.47;4.28;;;;;;;;;;5012084;28;20049;-66
2022/05/20 14:41:27;;;;;;;54.78;5.28;;;;;;;;;;5012217;28;20050;-66
2022/05/20 14:44:03;;;;;;;57.92;6.30;;;;;;;;;;5012309;28;20048;-67
2022/05/20 14:49:36;;;;;;;67.80;5.90;;;;;;;;;;5012847;28;20045;-66
2022/05/20 14:52:04;;;;;;;17.80;3.30;;;;;;;;;;5012754;28;20056;-67
2022/05/20 14:54:36;;;;;;;23.27;2.58;;;;;;;;;;5010978;28;20130;-66
2022/05/20 14:57:35;;;;;;;37.38;3.42;;;;;;;;;;5010460;28;20046;-66
2022/05/20 15:00:04;;;;;;;21.40;2.97;;;;;;;;;;5004935;28;20407;-66
2022/05/20 15:02:31;;;;;;;24.30;4.20;;;;;;;;;;4998238;28;20145;-66
2022/05/20 15:04:58;;;;;;;99.35;8.48;;;;;;;;;;4997167;28;20585;-66
2022/05/20 15:07:24;;;;;;;32.40;3.65;;;;;;;;;;4994506;28;20115;-66
2022/05/20 15:09:51;;;;;;;21.38;2.63;;;;;;;;;;4995810;28;20058;-66
2022/05/20 15:12:18;;;;;;;40.33;5.20;;;;;;;;;;4998288;28;20043;-67
2022/05/20 15:14:47;;;;;;;30.20;3.65;;;;;;;;;;5002295;28;20132;-66
2022/05/20 15:17:14;;;;;;;155.18;13.07;;;;;;;;;;5018817;28;20046;-66
2022/05/20 15:19:41;;;;;;;37.25;3.60;;;;;;;;;;4994989;28;20041;-66
2022/05/20 15:22:08;;;;;;;18.05;3.13;;;;;;;;;;4994116;28;20054;-66
2022/05/20 15:24:35;;;;;;;19.52;2.67;;;;;;;;;;4994512;28;20515;-66
2022/05/20 15:27:11;;;;;;;42.28;4.70;;;;;;;;;;5000951;28;20092;-66
2022/05/20 15:29:37;;;;;;;50.25;5.72;;;;;;;;;;4982776;28;20520;-66
2022/05/20 15:34:55;;;;;;;33.90;4.25;;;;;;;;;;4994065;28;20064;-66
2022/05/20 15:37:22;;;;;;;;;;;;;;;;;;4995593;28;20046;-66
2022/05/20 15:39:51;;;;;;;46.10;5.05;;;;;;;;;;4997540;28;20406;-66